KBYG

Details ICAO KBYG
Name JOHNSON CO
Region United States
Timezone America/Denver (UTC-7.0)
Plans Departing 2
Arriving 3
Stats Elevation 4,968 ft / 1,514 m (AMSL)
Location 44.381057° -106.721909°
Runways 1
Magnetic Variation 9.576° E
Sunrise 2017-12-13 14:36:10 UTC / 2017-12-13 07:36:10 Local
Sunset 2017-12-13 23:29:07 UTC / 2017-12-13 16:29:07 Local
Advertisement - Login to hide

Runways

ID Width Length Bearing (true) Bearing (mag) Surface Threshold Offset Overrun Length
13 75 ft / 23 m 6,131 ft / 1,869 m 138.19° 128.61° Asphalt 0 ft / 0 m 0 ft / 0 m
31 75 ft / 23 m 6,131 ft / 1,869 m 318.21° 308.63° Asphalt 0 ft / 0 m 0 ft / 0 m

Map

Weather


0- 5 10 15 20 25 30 35+ Temperature / ° C

Clouds and Precipitation
Forecast for 2017-12-13 12:00 UTC. Updated 2 hours ago

Ground ~20,000 ft ~40,000 ft Winds

METAR

KBYG 130853Z AUTO 33027G39KT 10SM CLR 08/M16 A3011 RMK AO2 PK WND 34039/0849 SLP160 T00781156 53001

TAF

Not found

Frequencies

Recorded 135.42 MHz ASOS
Unicom 122.80 MHz CTAF/UNICOM
Warning: Do not use this data for real-world aviation or navigation. No guarantee of current accuracy is given.